createdAt,value
2018-10-11T00:01:28.130Z,17.10
2018-10-11T00:03:55.661Z,17.10
2018-10-11T00:06:23.150Z,17.10
2018-10-11T00:08:50.651Z,17.10
2018-10-11T00:11:18.166Z,17.10
2018-10-11T00:13:45.669Z,17.20
2018-10-11T00:16:13.150Z,17.10
2018-10-11T00:18:40.676Z,17.10
2018-10-11T00:21:08.169Z,17.00
2018-10-11T00:23:35.805Z,16.90
2018-10-11T00:26:03.302Z,16.80
2018-10-11T00:28:30.811Z,16.80
2018-10-11T00:30:58.302Z,16.80
2018-10-11T00:33:25.802Z,16.80
2018-10-11T00:35:53.294Z,16.70
2018-10-11T00:38:20.802Z,16.70
2018-10-11T00:40:48.299Z,16.70
2018-10-11T00:43:15.818Z,16.80
2018-10-11T00:45:43.337Z,16.80
2018-10-11T00:48:10.858Z,16.70
2018-10-11T00:50:38.370Z,16.80
2018-10-11T00:53:05.886Z,16.80
2018-10-11T00:55:33.403Z,16.80
2018-10-11T00:58:00.921Z,16.80
2018-10-11T01:00:28.445Z,16.80
2018-10-11T01:02:55.962Z,16.70
2018-10-11T01:05:23.486Z,16.60
2018-10-11T01:07:50.997Z,16.60
2018-10-11T01:10:18.519Z,16.60
2018-10-11T01:12:46.286Z,16.60
2018-10-11T01:15:13.794Z,16.60
2018-10-11T01:17:41.330Z,16.50
2018-10-11T01:20:08.971Z,16.50
2018-10-11T01:22:36.474Z,16.40
2018-10-11T01:25:04.028Z,16.40
2018-10-11T01:27:31.542Z,16.30
2018-10-11T01:29:59.084Z,16.30
2018-10-11T01:32:26.588Z,16.30
2018-10-11T01:34:54.110Z,16.30
2018-10-11T01:37:22.432Z,16.30
2018-10-11T01:39:49.962Z,16.30
2018-10-11T01:42:17.469Z,16.20
2018-10-11T01:44:45.028Z,16.20
2018-10-11T01:47:12.563Z,16.10
2018-10-11T01:49:40.126Z,16.10
2018-10-11T01:52:07.652Z,16.00
2018-10-11T01:54:35.198Z,16.00
2018-10-11T01:57:02.710Z,16.10
2018-10-11T01:59:30.234Z,16.10
2018-10-11T02:01:57.751Z,16.10
2018-10-11T02:04:25.314Z,16.10
2018-10-11T02:06:52.849Z,16.10
2018-10-11T02:09:20.375Z,16.00
2018-10-11T02:11:47.881Z,16.00
2018-10-11T02:14:15.398Z,16.00
2018-10-11T02:16:42.922Z,16.00
2018-10-11T02:19:10.437Z,15.90
2018-10-11T02:21:37.947Z,15.80
2018-10-11T02:24:06.066Z,15.80
2018-10-11T02:26:33.583Z,15.80
2018-10-11T02:29:01.091Z,15.70
2018-10-11T02:31:28.591Z,15.70
2018-10-11T02:33:56.108Z,15.70
2018-10-11T02:36:23.623Z,15.70
2018-10-11T02:38:51.134Z,15.60
2018-10-11T02:41:18.637Z,15.60
2018-10-11T02:43:46.146Z,15.60
2018-10-11T02:46:13.634Z,15.60
2018-10-11T02:48:41.130Z,15.60
2018-10-11T02:51:08.622Z,15.50
2018-10-11T02:53:36.150Z,15.50
2018-10-11T02:56:04.123Z,15.50
2018-10-11T02:58:49.369Z,15.50
2018-10-11T03:01:17.408Z,15.60
2018-10-11T03:03:44.938Z,15.60
2018-10-11T03:06:12.438Z,15.70
2018-10-11T03:08:39.938Z,15.70
2018-10-11T03:11:07.450Z,15.70
2018-10-11T03:13:34.967Z,15.60
2018-10-11T03:16:02.459Z,15.60
2018-10-11T03:18:29.954Z,15.60
2018-10-11T03:20:57.448Z,15.70
2018-10-11T03:23:24.942Z,15.70
2018-10-11T03:25:52.434Z,15.60
2018-10-11T03:28:19.923Z,15.70
2018-10-11T03:30:47.421Z,15.70
2018-10-11T03:33:15.122Z,15.70
2018-10-11T03:35:43.514Z,15.80
2018-10-11T03:38:11.167Z,15.80
2018-10-11T03:40:38.687Z,15.80
2018-10-11T03:43:06.174Z,15.80
2018-10-11T03:45:33.673Z,15.80
2018-10-11T03:48:01.183Z,15.80
2018-10-11T03:50:28.683Z,15.80
2018-10-11T03:52:57.133Z,15.80
2018-10-11T03:55:24.906Z,15.80
2018-10-11T03:57:52.403Z,15.80
2018-10-11T04:00:19.914Z,15.80
2018-10-11T04:02:47.404Z,15.80
2018-10-11T04:05:14.906Z,15.80
2018-10-11T04:07:42.393Z,15.80
2018-10-11T04:10:09.902Z,15.80
2018-10-11T04:12:37.407Z,15.90
2018-10-11T04:15:04.914Z,15.90
2018-10-11T04:17:32.410Z,15.90
2018-10-11T04:19:59.915Z,15.90
2018-10-11T04:22:27.415Z,15.90
2018-10-11T04:24:54.938Z,15.90
2018-10-11T04:27:22.436Z,15.80
2018-10-11T04:29:49.927Z,15.90
2018-10-11T04:32:17.438Z,15.80
2018-10-11T04:34:44.935Z,15.80
2018-10-11T04:37:12.430Z,15.80
2018-10-11T04:39:40.170Z,15.80
2018-10-11T04:42:07.929Z,15.80
2018-10-11T04:44:36.021Z,15.80
2018-10-11T04:47:04.787Z,15.70
2018-10-11T04:49:32.565Z,15.70
2018-10-11T04:52:00.083Z,15.60
2018-10-11T04:54:27.594Z,15.60
2018-10-11T04:56:55.104Z,15.50
2018-10-11T04:59:22.629Z,15.50
2018-10-11T05:01:50.135Z,15.50
2018-10-11T05:04:17.703Z,15.50
2018-10-11T05:06:45.207Z,15.40
2018-10-11T05:09:12.714Z,15.40
2018-10-11T05:11:41.213Z,15.40
2018-10-11T05:14:10.638Z,15.50
2018-10-11T05:16:38.154Z,15.50
2018-10-11T05:19:05.935Z,15.50
2018-10-11T05:21:33.551Z,15.50
2018-10-11T05:24:01.041Z,15.50
2018-10-11T05:26:28.607Z,15.50
2018-10-11T05:28:56.132Z,15.50
2018-10-11T05:31:23.693Z,15.50
2018-10-11T05:33:52.768Z,15.50
2018-10-11T05:36:20.287Z,15.60
2018-10-11T05:38:47.846Z,15.70
2018-10-11T05:41:15.400Z,15.70
2018-10-11T05:43:42.930Z,15.70
2018-10-11T05:46:15.487Z,15.80
2018-10-11T05:48:43.010Z,15.80
2018-10-11T05:51:10.560Z,15.80
2018-10-11T05:53:38.091Z,15.90
2018-10-11T05:56:05.859Z,15.80
2018-10-11T05:58:33.391Z,15.90
2018-10-11T06:01:00.915Z,15.80
2018-10-11T06:03:28.435Z,15.80
2018-10-11T06:05:55.963Z,15.90
2018-10-11T06:08:23.474Z,15.90
2018-10-11T06:10:51.010Z,15.80
2018-10-11T06:13:18.521Z,15.90
2018-10-11T06:15:46.046Z,15.90
2018-10-11T06:18:13.561Z,15.90
2018-10-11T06:20:41.506Z,15.90
2018-10-11T06:23:09.155Z,16.00
2018-10-11T06:25:36.692Z,16.00
2018-10-11T06:28:04.351Z,16.00
2018-10-11T06:30:33.493Z,16.20
2018-10-11T06:33:01.016Z,16.20
2018-10-11T06:35:28.546Z,16.20
2018-10-11T06:37:56.171Z,16.30
2018-10-11T06:40:23.714Z,16.40
2018-10-11T06:42:51.722Z,16.50
2018-10-11T06:45:19.279Z,16.50
2018-10-11T06:47:50.219Z,16.50
2018-10-11T06:50:17.809Z,16.50
2018-10-11T06:52:45.358Z,16.60
2018-10-11T06:55:12.895Z,16.70
2018-10-11T06:57:40.426Z,16.70
2018-10-11T07:00:07.946Z,16.80
2018-10-11T07:02:35.491Z,16.90
2018-10-11T07:05:03.032Z,17.00
2018-10-11T07:07:30.598Z,17.10
2018-10-11T07:09:58.133Z,17.10
2018-10-11T07:12:25.670Z,17.30
2018-10-11T07:14:53.195Z,17.40
2018-10-11T07:17:20.719Z,17.40
2018-10-11T07:19:48.258Z,17.50
2018-10-11T07:22:15.790Z,17.60
2018-10-11T07:24:43.332Z,17.60
2018-10-11T07:27:10.877Z,17.70
2018-10-11T07:29:38.394Z,17.80
2018-10-11T07:32:05.915Z,17.90
2018-10-11T07:34:33.459Z,18.00
2018-10-11T07:37:00.970Z,18.10
2018-10-11T07:39:28.486Z,18.10
2018-10-11T07:41:56.036Z,18.20
2018-10-11T07:44:23.559Z,18.30
2018-10-11T07:46:51.075Z,18.50
2018-10-11T07:49:18.583Z,18.50
2018-10-11T07:51:46.110Z,18.60
2018-10-11T07:54:13.626Z,18.70
2018-10-11T07:56:41.139Z,18.80
2018-10-11T07:59:08.652Z,18.90
2018-10-11T08:01:36.215Z,19.00
2018-10-11T08:04:03.667Z,19.10
2018-10-11T08:06:31.180Z,19.20
2018-10-11T08:08:58.767Z,19.30
2018-10-11T08:11:26.338Z,19.40
2018-10-11T08:13:54.129Z,19.50
2018-10-11T08:16:21.874Z,19.60
2018-10-11T08:18:49.344Z,19.70
2018-10-11T08:21:26.646Z,19.80
2018-10-11T08:23:54.095Z,19.90
2018-10-11T08:26:21.906Z,20.00
2018-10-11T08:28:49.234Z,20.10
2018-10-11T08:31:16.786Z,20.20
2018-10-11T08:33:44.282Z,20.30
2018-10-11T08:36:11.781Z,20.40
2018-10-11T08:38:39.367Z,20.50
2018-10-11T08:41:06.827Z,20.60
2018-10-11T08:43:34.398Z,20.70
2018-10-11T08:46:01.906Z,20.80
2018-10-11T08:48:29.550Z,20.90
2018-10-11T08:50:57.136Z,21.10
2018-10-11T08:53:24.595Z,21.10
2018-10-11T08:55:52.144Z,21.30
2018-10-11T08:58:19.655Z,21.40
2018-10-11T09:00:47.162Z,21.50
2018-10-11T09:03:14.708Z,21.60
2018-10-11T09:05:52.581Z,21.70
2018-10-11T09:08:20.082Z,21.80
2018-10-11T09:10:47.658Z,22.00
2018-10-11T09:13:15.127Z,22.10
2018-10-11T09:15:42.630Z,22.20
2018-10-11T09:18:10.151Z,22.30
2018-10-11T09:20:37.653Z,22.50
2018-10-11T09:23:05.435Z,22.60
2018-10-11T09:25:32.944Z,22.90
2018-10-11T09:28:00.442Z,23.20
2018-10-11T09:30:28.020Z,23.50
2018-10-11T09:32:55.490Z,23.80
2018-10-11T09:35:22.990Z,24.00
2018-10-11T09:37:51.331Z,24.30
2018-10-11T09:40:18.840Z,24.50
2018-10-11T09:42:46.340Z,24.80
2018-10-11T09:45:13.863Z,25.10
2018-10-11T09:47:41.375Z,25.30
2018-10-11T09:50:08.886Z,25.50
2018-10-11T09:52:36.397Z,25.70
2018-10-11T09:55:04.102Z,25.90
2018-10-11T09:57:33.598Z,26.00
2018-10-11T10:00:02.396Z,26.30
2018-10-11T10:02:30.354Z,26.40
2018-10-11T10:04:59.073Z,26.50
2018-10-11T10:07:26.812Z,26.70
2018-10-11T10:09:54.385Z,26.90
2018-10-11T10:12:22.079Z,27.10
2018-10-11T10:14:50.016Z,27.30
2018-10-11T10:17:17.783Z,27.60
2018-10-11T10:19:45.630Z,27.80
2018-10-11T10:22:13.176Z,28.00
2018-10-11T10:24:40.686Z,28.10
2018-10-11T10:27:08.348Z,28.20
2018-10-11T10:29:35.981Z,28.30
2018-10-11T10:32:03.776Z,28.40
2018-10-11T10:34:31.401Z,28.60
2018-10-11T10:36:59.083Z,28.60
2018-10-11T10:39:26.600Z,28.60
2018-10-11T10:41:54.171Z,28.60
2018-10-11T10:44:21.728Z,28.50
2018-10-11T10:46:49.300Z,28.50
2018-10-11T10:49:16.837Z,28.60
2018-10-11T10:51:44.387Z,28.70
2018-10-11T10:54:17.570Z,28.80
2018-10-11T10:56:45.095Z,28.70
2018-10-11T10:59:12.602Z,28.80
2018-10-11T11:04:52.278Z,29.00
2018-10-11T11:07:19.829Z,29.20
2018-10-11T11:09:47.354Z,29.40
2018-10-11T11:12:14.939Z,29.50
2018-10-11T11:14:42.429Z,29.70
2018-10-11T11:17:09.955Z,29.80
2018-10-11T11:19:43.328Z,29.80
2018-10-11T11:22:10.852Z,29.80
2018-10-11T11:25:01.950Z,29.70
2018-10-11T11:27:29.623Z,29.60
2018-10-11T11:29:57.169Z,29.50
2018-10-11T11:32:24.703Z,29.50
2018-10-11T11:34:56.522Z,29.60
2018-10-11T11:37:24.038Z,29.70
2018-10-11T11:39:51.562Z,29.80
2018-10-11T11:42:19.077Z,29.80
2018-10-11T11:44:46.619Z,29.80
2018-10-11T11:47:27.929Z,29.90
2018-10-11T11:49:55.451Z,29.90
2018-10-11T11:52:22.961Z,29.90
2018-10-11T11:54:50.495Z,30.10
2018-10-11T11:57:17.999Z,30.10
2018-10-11T11:59:45.498Z,30.00
2018-10-11T12:02:13.070Z,30.00
2018-10-11T12:04:40.550Z,29.90
2018-10-11T12:07:08.074Z,29.90
2018-10-11T12:09:35.626Z,29.90
2018-10-11T12:12:03.148Z,29.90
2018-10-11T12:14:30.679Z,30.00
2018-10-11T12:16:58.210Z,30.00
2018-10-11T12:19:25.734Z,30.00
2018-10-11T12:21:53.279Z,29.90
2018-10-11T12:24:20.758Z,29.90
2018-10-11T12:26:48.290Z,30.00
2018-10-11T12:29:15.791Z,29.90
2018-10-11T12:31:43.317Z,29.70
2018-10-11T12:34:10.835Z,29.70
2018-10-11T12:36:38.494Z,29.60
2018-10-11T12:39:07.295Z,29.60
2018-10-11T12:41:34.810Z,29.50
2018-10-11T12:44:02.342Z,29.50
2018-10-11T12:46:34.751Z,29.40
2018-10-11T12:48:57.387Z,29.30
2018-10-11T12:51:24.913Z,29.20
2018-10-11T12:53:52.460Z,29.20
2018-10-11T12:56:20.008Z,29.10
2018-10-11T12:58:47.511Z,29.00
2018-10-11T13:01:17.270Z,28.90
2018-10-11T13:03:42.568Z,28.80
2018-10-11T13:06:31.546Z,28.70
2018-10-11T13:08:59.103Z,28.70
2018-10-11T13:11:26.615Z,28.60
2018-10-11T13:13:54.137Z,28.70
2018-10-11T13:16:21.650Z,28.80
2018-10-11T13:18:49.142Z,28.90
2018-10-11T13:21:16.667Z,28.90
2018-10-11T13:23:44.185Z,28.90
2018-10-11T13:26:11.684Z,29.00
2018-10-11T13:28:39.235Z,29.10
2018-10-11T13:31:06.784Z,29.20
2018-10-11T13:33:34.279Z,29.30
2018-10-11T13:36:01.794Z,29.50
2018-10-11T13:38:29.347Z,29.70
2018-10-11T13:41:00.988Z,29.70
2018-10-11T13:43:24.371Z,29.80
2018-10-11T13:45:54.559Z,29.80
2018-10-11T13:48:19.411Z,29.90
2018-10-11T13:50:46.934Z,29.90
2018-10-11T13:53:18.368Z,29.80
2018-10-11T13:55:48.706Z,29.90
2018-10-11T13:58:11.623Z,29.90
2018-10-11T14:00:39.131Z,29.80
2018-10-11T14:03:07.177Z,29.80
2018-10-11T14:05:34.680Z,29.70
2018-10-11T14:08:02.169Z,29.70
2018-10-11T14:10:29.721Z,29.70
2018-10-11T14:12:57.183Z,29.50
2018-10-11T14:15:24.687Z,29.40
2018-10-11T14:17:52.264Z,29.20
2018-10-11T14:20:19.726Z,29.20
2018-10-11T14:22:47.224Z,29.00
2018-10-11T14:25:14.745Z,28.90
2018-10-11T14:27:42.250Z,28.80
2018-10-11T14:30:09.770Z,28.60
2018-10-11T14:32:37.266Z,28.50
2018-10-11T14:35:04.826Z,28.30
2018-10-11T14:37:32.604Z,28.10
2018-10-11T14:40:00.103Z,27.90
2018-10-11T14:42:27.602Z,27.70
2018-10-11T14:44:55.152Z,27.40
2018-10-11T14:47:22.679Z,27.20
2018-10-11T14:49:50.196Z,26.90
2018-10-11T14:52:17.740Z,26.70
2018-10-11T14:54:45.278Z,26.50
2018-10-11T14:57:12.854Z,26.30
2018-10-11T14:59:40.438Z,26.10
2018-10-11T15:02:07.893Z,26.00
2018-10-11T15:04:35.414Z,25.80
2018-10-11T15:07:02.942Z,25.70
2018-10-11T15:09:30.468Z,25.60
2018-10-11T15:11:58.025Z,25.40
2018-10-11T15:14:25.982Z,25.30
2018-10-11T15:16:54.062Z,25.20
2018-10-11T15:19:21.570Z,25.00
2018-10-11T15:21:49.100Z,24.90
2018-10-11T15:24:16.628Z,24.80
2018-10-11T15:26:44.150Z,24.70
2018-10-11T15:29:11.688Z,24.60
2018-10-11T15:31:39.218Z,24.40
2018-10-11T15:34:06.766Z,24.30
2018-10-11T15:36:34.273Z,24.20
2018-10-11T15:39:01.782Z,24.10
2018-10-11T15:41:29.310Z,23.90
2018-10-11T15:43:56.843Z,23.80
2018-10-11T15:46:24.352Z,23.70
2018-10-11T15:48:51.880Z,23.50
2018-10-11T15:51:19.397Z,23.30
2018-10-11T15:53:46.915Z,23.20
2018-10-11T15:56:14.447Z,23.10
2018-10-11T15:58:41.964Z,23.00
2018-10-11T16:01:09.507Z,22.80
2018-10-11T16:03:37.040Z,22.60
2018-10-11T16:06:04.558Z,22.40
2018-10-11T16:08:32.079Z,22.20
2018-10-11T16:10:59.607Z,22.00
2018-10-11T16:13:27.115Z,21.80
2018-10-11T16:15:54.633Z,21.60
2018-10-11T16:18:22.148Z,21.50
2018-10-11T16:20:49.679Z,21.30
2018-10-11T16:23:17.185Z,21.30
2018-10-11T16:25:44.707Z,21.20
2018-10-11T16:28:12.223Z,21.20
2018-10-11T16:30:39.762Z,21.10
2018-10-11T16:33:07.294Z,21.00
2018-10-11T16:35:34.798Z,20.80
2018-10-11T16:38:02.350Z,20.60
2018-10-11T16:40:29.912Z,20.40
2018-10-11T16:42:57.428Z,20.30
2018-10-11T16:45:24.976Z,20.30
2018-10-11T16:47:52.503Z,20.10
2018-10-11T16:50:20.119Z,20.10
2018-10-11T16:52:47.635Z,19.90
2018-10-11T16:55:15.153Z,19.90
2018-10-11T16:57:42.666Z,19.80
2018-10-11T17:00:10.194Z,19.70
2018-10-11T17:02:37.715Z,19.60
2018-10-11T17:05:05.491Z,19.50
2018-10-11T17:07:33.026Z,19.40
2018-10-11T17:10:00.574Z,19.20
2018-10-11T17:12:31.586Z,19.10
2018-10-11T17:14:59.094Z,19.00
2018-10-11T17:17:26.594Z,18.90
2018-10-11T17:19:54.102Z,18.80
2018-10-11T17:22:21.606Z,18.70
2018-10-11T17:24:49.106Z,18.70
2018-10-11T17:27:16.634Z,18.60
2018-10-11T17:29:44.194Z,18.50
2018-10-11T17:32:29.614Z,18.50
2018-10-11T17:34:57.131Z,18.50
2018-10-11T17:37:24.663Z,18.50
2018-10-11T17:39:52.171Z,18.50
2018-10-11T17:42:19.692Z,18.50
2018-10-11T17:44:47.208Z,18.50
2018-10-11T17:47:14.719Z,18.60
2018-10-11T17:49:42.206Z,18.70
2018-10-11T17:52:09.706Z,18.90
2018-10-11T17:54:38.493Z,18.90
2018-10-11T17:57:06.003Z,19.00
2018-10-11T17:59:33.498Z,19.10
2018-10-11T18:02:01.009Z,19.10
2018-10-11T18:04:28.497Z,19.20
2018-10-11T18:06:56.006Z,19.40
2018-10-11T18:09:23.494Z,19.40
2018-10-11T18:11:50.994Z,19.50
2018-10-11T18:14:18.550Z,19.60
2018-10-11T18:16:46.043Z,19.50
2018-10-11T18:19:13.534Z,19.60
2018-10-11T18:21:41.147Z,19.70
2018-10-11T18:24:08.608Z,19.70
2018-10-11T18:26:36.251Z,19.80
2018-10-11T18:29:03.813Z,19.90
2018-10-11T18:31:31.267Z,20.00
2018-10-11T18:33:58.753Z,20.00
2018-10-11T18:36:26.260Z,20.00
2018-10-11T18:38:53.754Z,19.90
2018-10-11T18:41:24.795Z,19.90
2018-10-11T18:43:52.295Z,19.90
2018-10-11T18:46:19.819Z,19.80
2018-10-11T18:49:13.848Z,19.80
2018-10-11T18:51:41.358Z,19.80
2018-10-11T18:54:08.859Z,19.80
2018-10-11T18:56:36.370Z,19.80
2018-10-11T18:59:03.868Z,19.80
2018-10-11T19:04:59.527Z,19.90
2018-10-11T19:07:27.054Z,19.90
2018-10-11T19:09:54.551Z,19.80
2018-10-11T19:15:30.469Z,19.90
2018-10-11T19:17:57.976Z,19.80
2018-10-11T19:20:25.469Z,19.80
2018-10-11T19:22:58.251Z,19.70
2018-10-11T19:25:25.806Z,19.60
2018-10-11T19:27:53.391Z,19.60
2018-10-11T19:30:20.892Z,19.60
2018-10-11T19:32:48.399Z,19.70
2018-10-11T19:35:15.892Z,19.70
2018-10-11T19:37:43.418Z,19.70
2018-10-11T19:40:10.924Z,19.80
2018-10-11T19:42:38.430Z,19.80
2018-10-11T19:45:06.011Z,19.80
2018-10-11T19:47:33.538Z,19.70
2018-10-11T19:50:13.719Z,19.70
2018-10-11T19:52:41.250Z,19.60
2018-10-11T19:55:12.010Z,19.50
2018-10-11T19:57:39.562Z,19.50
2018-10-11T20:00:07.341Z,19.50
2018-10-11T20:02:34.889Z,19.40
2018-10-11T20:05:02.404Z,19.40
2018-10-11T20:07:29.927Z,19.30
2018-10-11T20:09:57.431Z,19.30
2018-10-11T20:12:24.954Z,19.30
2018-10-11T20:14:52.478Z,19.20
2018-10-11T20:17:20.096Z,19.10
2018-10-11T20:19:47.530Z,19.10
2018-10-11T20:22:20.418Z,19.00
2018-10-11T20:24:47.926Z,18.80
2018-10-11T20:27:15.395Z,18.60
2018-10-11T20:29:42.898Z,18.30
2018-10-11T20:32:10.415Z,18.10
2018-10-11T20:34:37.929Z,17.90
2018-10-11T20:37:05.780Z,17.70
2018-10-11T20:39:33.304Z,17.50
2018-10-11T20:42:00.865Z,17.30
2018-10-11T20:44:28.424Z,17.10
2018-10-11T20:46:55.975Z,16.90
2018-10-11T20:49:33.810Z,16.80
2018-10-11T20:52:01.341Z,16.60
2018-10-11T20:54:28.854Z,16.50
2018-10-11T20:56:56.378Z,16.40
2018-10-11T20:59:23.888Z,16.40
2018-10-11T21:01:51.578Z,16.50
2018-10-11T21:04:19.082Z,16.60
2018-10-11T21:06:46.598Z,16.70
2018-10-11T21:09:14.127Z,16.80
2018-10-11T21:11:41.649Z,16.80
2018-10-11T21:14:09.374Z,16.90
2018-10-11T21:16:37.033Z,16.90
2018-10-11T21:19:05.036Z,17.00
2018-10-11T21:21:32.658Z,17.10
2018-10-11T21:24:00.346Z,17.20
2018-10-11T21:26:28.100Z,17.30
2018-10-11T21:28:55.598Z,17.40
2018-10-11T21:31:23.117Z,17.40
2018-10-11T21:33:50.651Z,17.40
2018-10-11T21:36:18.207Z,17.50
2018-10-11T21:38:45.730Z,17.50
2018-10-11T21:41:13.243Z,17.60
2018-10-11T21:43:40.776Z,17.60
2018-10-11T21:46:08.411Z,17.70
2018-10-11T21:48:35.823Z,17.70
2018-10-11T21:51:03.346Z,17.80
2018-10-11T21:53:30.861Z,17.80
2018-10-11T21:55:58.370Z,17.90
2018-10-11T21:58:25.891Z,17.90
2018-10-11T22:00:59.261Z,17.90
2018-10-11T22:03:26.758Z,17.90
2018-10-11T22:05:54.279Z,17.90
2018-10-11T22:08:21.806Z,17.90
2018-10-11T22:10:49.333Z,17.90
2018-10-11T22:13:16.853Z,17.90
2018-10-11T22:15:44.374Z,17.90
2018-10-11T22:18:11.896Z,17.80
2018-10-11T22:20:39.463Z,17.70
2018-10-11T22:23:06.959Z,17.70
2018-10-11T22:25:34.467Z,17.60
2018-10-11T22:28:02.000Z,17.60
2018-10-11T22:30:29.521Z,17.60
2018-10-11T22:32:57.053Z,17.60
2018-10-11T22:35:24.575Z,17.60
2018-10-11T22:37:58.367Z,17.60
2018-10-11T22:40:26.157Z,17.60
2018-10-11T22:42:53.929Z,17.50
2018-10-11T22:45:21.687Z,17.50
2018-10-11T22:47:49.227Z,17.50
2018-10-11T22:50:16.734Z,17.50
2018-10-11T22:52:44.268Z,17.40
2018-10-11T22:55:11.810Z,17.30
2018-10-11T22:57:39.336Z,17.30
2018-10-11T23:00:08.174Z,17.20
2018-10-11T23:02:35.707Z,17.20
2018-10-11T23:05:03.422Z,17.10
2018-10-11T23:07:30.938Z,17.00
2018-10-11T23:09:58.463Z,17.00
2018-10-11T23:12:25.970Z,17.00
2018-10-11T23:14:53.535Z,17.00
2018-10-11T23:17:21.123Z,17.00
2018-10-11T23:19:48.647Z,17.00
2018-10-11T23:22:16.159Z,17.00
2018-10-11T23:24:43.679Z,17.00
2018-10-11T23:27:11.203Z,17.00
2018-10-11T23:29:38.750Z,17.00
2018-10-11T23:32:06.282Z,17.00
2018-10-11T23:34:33.826Z,17.00
2018-10-11T23:37:01.365Z,16.90
2018-10-11T23:39:28.898Z,16.90
2018-10-11T23:41:56.389Z,16.90
2018-10-11T23:44:23.892Z,16.90
2018-10-11T23:46:51.373Z,16.80
2018-10-11T23:49:18.886Z,16.80
2018-10-11T23:51:46.381Z,16.70
2018-10-11T23:54:13.894Z,16.70
2018-10-11T23:56:41.391Z,16.80
2018-10-11T23:59:08.887Z,16.80
